METAR AND TAF INFORMATION
METAR FOR SVMI
ADDS - METARS form results

(2016 UTC 26 June 2019)
Data provider http://aviationweather.gov/metar/data/
 
METAR text: SVMI 262006Z 14003KT 9999 FEW016 26/23 Q1013
Conditions at: SVMI (CARACAS/S. BOLIV, VE) observed 2006 UTC 26 June 2019
Temperature: 26.0°C (79°F)
Dewpoint: 23.0°C (73°F) [RH = 84%]
Pressure (altimeter): 29.91 inches Hg (1013.0 mb)
Winds: from the SE (140 degrees) at 3 MPH (3 knots; 1.5 m/s)
Visibility: 6 or more miles (10+ km)
Ceiling: at least 12,000 feet AGL
Clouds: few clouds at 1600 feet AGL
Weather: no significant weather observed at this time

Forecast for: SVMI (CARACAS/S. BOLIV, VE)
Text: TAF SVMI 261600Z 2618/2718 09004KT 9999 FEW016 TX31/1700Z TN24/1000Z
Forecast period: 1800 UTC 26 June 2019 to 1800 UTC 27 June 2019
Forecast type: FROM: standard forecast or significant change
Winds: from the E (90 degrees) at 5 MPH (4 knots; 2.1 m/s)
Visibility: 6 or more miles 10+ km)
Ceiling: at least 12,000 feet AGL
Clouds: few clouds at 1600 feet AGL
Weather: no significant weather forecast for this period
Text: BECMG 2618/2623 07006KT SCT016
Forecast period: 1800 UTC 26 June 2019 to 0000 UTC 27 June 2019
Forecast type: BECOMING: Conditions expected to become as follows by 2300 UTC 26 June 2019
Winds: from the ENE (70 degrees) at 7 MPH (6 knots; 3.1 m/s)
Visibility: 6 or more miles 10+ km)
Ceiling: at least 12,000 feet AGL
Clouds: scattered clouds at 1600 feet AGL
Weather: no significant weather forecast for this period
Text: BECMG 2700/2704 11006KT FEW016 SCT090 TAF SVMC 261600Z 2618/2718 23006KT 9999 SCT016 SCT070 TX33/1800Z TN24/0900Z
Forecast period: 0000 to 1800 UTC 27 June 2019
Forecast type: BECOMING: Conditions expected to become as follows by 0400 UTC 27 June 2019
Winds: from the ESE (110 degrees) at 7 MPH (6 knots; 3.1 m/s)
Visibility: 6 or more miles 10+ km)
Ceiling: at least 12,000 feet AGL
Clouds: few clouds at 1600 feet AGL
scattered clouds at 1600 feet AGL
scattered clouds at 9000 feet AGL
Weather: no significant weather forecast for this period
Text: BECMG 2619/2623 26008KT 9000 DZ BKN016 TAF SVBC 261600Z 2618/2718 07006KT 9999 FEW016 TX31/1700Z TN24/1000Z
Forecast period: 1900 UTC 26 June 2019 to 1800 UTC 27 June 2019
Forecast type: BECOMING: Conditions expected to become as follows by 2300 UTC 26 June 2019
Winds: from the W (260 degrees) at 9 MPH (8 knots; 4.1 m/s)
Visibility: 6 or more miles 10+ km)
Ceiling: 1600 feet AGL
Clouds: broken clouds at 1600 feet AGL
few clouds at 1600 feet AGL
Weather: DZ  (moderate drizzle)
Text: BECMG 2619/2623 09008KT SCT016 TAF SVMG 261600Z 2618/2718 09010KT FEW016 TX31/1700Z TN24/1000Z
Forecast period: 1900 UTC 26 June 2019 to 1800 UTC 27 June 2019
Forecast type: BECOMING: Conditions expected to become as follows by 2300 UTC 26 June 2019
Winds: from the E (90 degrees) at 9 MPH (8 knots; 4.1 m/s)
Visibility: 1.69 miles (2.72 km)
Ceiling: at least 12,000 feet AGL
Clouds: scattered clouds at 1600 feet AGL
few clouds at 1600 feet AGL
Weather: DZ  (moderate drizzle)
Text: BECMG 2619/2623 07015KT SCT016 TAF SVSA 261600Z 2618/2718 23008KT 9999 SCT016 TX31/1700Z TN22/1000Z
Forecast period: 1900 UTC 26 June 2019 to 1800 UTC 27 June 2019
Forecast type: BECOMING: Conditions expected to become as follows by 2300 UTC 26 June 2019
Winds: from the ENE (70 degrees) at 17 MPH (15 knots; 7.7 m/s)
Visibility: 6 or more miles 10+ km)
Ceiling: at least 12,000 feet AGL
Clouds: scattered clouds at 1600 feet AGL
scattered clouds at 1600 feet AGL
Weather: SA  (sand)
Text: BECMG 2619/2623 23010KT 9000 DZ SCT020 SCT090 TAF SVJC 261600Z 2618/2718 09012KT 9999 SCT016 TX32/1700Z TN24/0900Z
Forecast period: 1900 UTC 26 June 2019 to 1800 UTC 27 June 2019
Forecast type: BECOMING: Conditions expected to become as follows by 2300 UTC 26 June 2019
Winds: from the SW (230 degrees) at 12 MPH (10 knots; 5.1 m/s)
Visibility: 6 or more miles 10+ km)
Ceiling: at least 12,000 feet AGL
Clouds: scattered clouds at 1600 feet AGL
scattered clouds at 2000 feet AGL
scattered clouds at 9000 feet AGL
Weather: DZ  (moderate drizzle)
Text: BECMG 2619/2623 07016KT 9000 VCDZ SCT016
Forecast period: 1900 UTC 26 June 2019 to 1800 UTC 27 June 2019
Forecast type: BECOMING: Conditions expected to become as follows by 2300 UTC 26 June 2019
Winds: from the ENE (70 degrees) at 18 MPH (16 knots; 8.2 m/s)
Visibility: 6 miles (9 km)
Ceiling: at least 12,000 feet AGL
Clouds: scattered clouds at 1600 feet AGL
Weather: VCDZ  (unknown weather)

 AIRPORT MAP

 RUNWAY INFORMATION
Runway 09 Runway length 9930 ft Runway width 145 ft
Runway elevation 230 ft Runway displaced threshold 0 ft Runway heading 76
Runway 27 Runway length 9930 ft Runway width 145 ft
Runway elevation 101 ft Runway displaced threshold 0 ft Runway heading 256
Runway 10 Runway length 11483 ft Runway width 148 ft
Runway elevation 235 ft Runway displaced threshold 0 ft Runway heading 88
Runway 28 Runway length 11483 ft Runway width 148 ft
Runway elevation 147 ft Runway displaced threshold 0 ft Runway heading 268

 AIRPORT FREQUENCIES
Type APP Name MAIQUETIA Frequency 120.1 MHZ
Type ATIS Name ATIS Frequency 114.8 MHZ
Type CLD Name CLD Frequency 119.5 MHZ
Type DEP Name MAIQUETIA Frequency 118.4 MHZ
Type GND Name GND Frequency 121.9 MHZ
Type RDO Name MAIQUETIA Frequency 130.1 MHZ
Type TWR Name MAIQUETIA Frequency 118.1 MHZ

 AIRPORT NEAR NAVIGATION AIDS
Type VOR-DME Name Maiquetia Frequency 114800 KHZ
Type NDB Name Maiquetia Frequency 292 KHZ




Powered by Virtual Airlines Manager [v2.6.1]